Time;durP1;ratioP1;P1;durP2;ratioP2;P2;SDS_P1;SDS_P2;PMS_P1;PMS_P2;Temp;Humidity;BMP_temperature;BMP_pressure;BME280_temperature;BME280_humidity;BME280_pressure;Samples;Min_cycle;Max_cycle;Signal;HPM_P1;HPM_P2
2021/10/18 00:00:31;;;;;;;39.70;12.67;;;;;;;;;;5053248;28;20439;-86
2021/10/18 00:02:58;;;;;;;34.10;11.60;;;;;;;;;;5053195;28;20505;-87
2021/10/18 00:05:25;;;;;;;21.80;12.77;;;;;;;;;;5053561;28;20471;-87
2021/10/18 00:07:52;;;;;;;26.30;13.70;;;;;;;;;;5053507;28;20458;-87
2021/10/18 00:10:21;;;;;;;24.70;12.93;;;;;;;;;;5075065;23;20510;-86
2021/10/18 00:12:52;;;;;;;23.33;12.40;;;;;;;;;;5050678;23;20503;-87
2021/10/18 00:15:20;;;;;;;21.83;11.93;;;;;;;;;;5075387;23;20503;-86
2021/10/18 00:17:47;;;;;;;25.17;12.00;;;;;;;;;;5049502;28;20431;-87
2021/10/18 00:20:16;;;;;;;20.73;12.13;;;6.60;99.90;;;;;;5057169;23;20505;-87
2021/10/18 00:22:46;;;;;;;21.20;11.47;;;;;;;;;;5050549;28;20434;-87
2021/10/18 00:25:13;;;;;;;25.57;14.00;;;;;;;;;;5059314;23;20491;-86
2021/10/18 00:27:49;;;;;;;25.13;13.70;;;;;;;;;;5073887;23;20520;-85
2021/10/18 00:30:16;;;;;;;26.13;14.47;;;;;;;;;;5062603;23;20489;-86
2021/10/18 00:32:43;;;;;;;26.23;14.47;;;;;;;;;;5074416;28;20945;-87
2021/10/18 00:35:11;;;;;;;25.67;13.73;;;6.80;99.90;;;;;;5077685;23;20479;-86
2021/10/18 00:37:38;;;;;;;34.27;14.37;;;;;;;;;;5049260;28;20443;-86
2021/10/18 00:40:08;;;;;;;25.57;14.40;;;6.80;99.90;;;;;;5056220;28;20455;-87
2021/10/18 00:42:35;;;;;;;25.97;15.23;;;6.80;99.90;;;;;;5063460;23;20486;-87
2021/10/18 00:45:05;;;;;;;28.90;15.10;;;6.70;99.90;;;;;;5057590;28;20860;-86
2021/10/18 00:47:32;;;;;;;33.47;15.37;;;;;;;;;;5065389;23;20475;-86
2021/10/18 00:50:02;;;;;;;24.10;14.33;;;6.70;99.90;;;;;;5074074;23;20546;-87
2021/10/18 00:52:34;;;;;;;29.60;14.83;;;6.70;99.90;;;;;;5082177;23;20592;-86
2021/10/18 00:55:02;;;;;;;27.27;14.00;;;6.70;99.90;;;;;;5073065;23;20587;-87
2021/10/18 00:57:29;;;;;;;32.83;15.03;;;;;;;;;;5055740;28;20451;-86
2021/10/18 00:59:58;;;;;;;26.87;14.50;;;6.80;99.90;;;;;;5057789;28;20448;-86
2021/10/18 01:02:27;;;;;;;28.50;14.80;;;6.80;99.90;;;;;;5078554;23;20476;-86
2021/10/18 01:04:54;;;;;;;30.57;15.03;;;;;;;;;;5071619;28;20532;-86
2021/10/18 01:07:21;;;;;;;30.07;14.90;;;6.80;99.90;;;;;;5070707;23;20547;-86
2021/10/18 01:09:55;;;;;;;30.73;14.90;;;;;;;;;;5064703;23;20432;-87
2021/10/18 01:12:23;;;;;;;40.50;17.87;;;6.90;99.90;;;;;;4930874;23;4119913;-87
2021/10/18 01:14:51;;;;;;;38.33;16.80;;;6.80;99.90;;;;;;5074964;23;20487;-86
2021/10/18 01:17:18;;;;;;;37.90;17.77;;;;;;;;;;5057663;28;20452;-86
2021/10/18 01:19:46;;;;;;;29.57;16.30;;;6.90;99.90;;;;;;5022901;28;20446;-86
2021/10/18 01:22:15;;;;;;;29.93;17.03;;;6.80;99.90;;;;;;5069047;23;20482;-87
2021/10/18 01:27:23;;;;;;;36.70;16.50;;;6.90;99.90;;;;;;5070608;23;20537;-86
2021/10/18 01:29:56;;;;;;;31.90;16.83;;;;;;;;;;5079874;23;20215;-86
2021/10/18 01:32:23;;;;;;;33.90;17.13;;;;;;;;;;5062560;23;20499;-87
2021/10/18 01:35:07;;;;;;;30.03;15.23;;;6.90;99.90;;;;;;5070005;23;20483;-86
2021/10/18 01:37:35;;;;;;;33.03;15.80;;;;;;;;;;5063114;23;20479;-86
2021/10/18 01:40:03;;;;;;;28.03;14.30;;;;;;;;;;5042122;23;20491;-86
2021/10/18 01:42:30;;;;;;;28.83;16.90;;;;;;;;;;5035210;23;20477;-87
2021/10/18 01:45:01;;;;;;;29.93;16.93;;;6.80;99.90;;;;;;5060162;23;20487;-87
2021/10/18 01:47:28;;;;;;;34.77;18.23;;;;;;;;;;5053772;28;20432;-85
2021/10/18 01:49:56;;;;;;;25.17;15.00;;;;;;;;;;5054042;28;20431;-86
2021/10/18 01:52:23;;;;;;;27.80;14.27;;;;;;;;;;5069785;23;20483;-87
2021/10/18 01:54:56;;;;;;;25.13;14.77;;;;;;;;;;5068238;23;20483;-86
2021/10/18 01:57:24;;;;;;;32.17;16.80;;;;;;;;;;5036165;28;20448;-86
2021/10/18 01:59:51;;;;;;;28.43;16.30;;;;;;;;;;5066797;23;20490;-86
2021/10/18 02:02:18;;;;;;;29.10;15.20;;;;;;;;;;5062788;23;20487;-86
2021/10/18 02:04:46;;;;;;;34.23;16.87;;;;;;;;;;5072897;23;20495;-87
2021/10/18 02:07:13;;;;;;;30.53;15.27;;;;;;;;;;5056846;28;20424;-87
2021/10/18 02:09:40;;;;;;;40.90;16.87;;;;;;;;;;5062807;23;20486;-85
2021/10/18 02:12:09;;;;;;;31.20;16.43;;;;;;;;;;5063202;23;20443;-86
2021/10/18 02:14:37;;;;;;;35.20;17.40;;;;;;;;;;5063876;23;20497;-86
2021/10/18 02:17:04;;;;;;;38.40;16.70;;;6.80;99.90;;;;;;5059846;23;20484;-87
2021/10/18 02:19:31;;;;;;;24.87;15.47;;;;;;;;;;5034047;28;20457;-86
2021/10/18 02:22:02;;;;;;;33.07;15.87;;;;;;;;;;5060242;23;20491;-86
2021/10/18 02:24:29;;;;;;;31.03;16.50;;;;;;;;;;5053477;28;20475;-86
2021/10/18 02:26:56;;;;;;;27.97;16.90;;;;;;;;;;5056865;28;20444;-86
2021/10/18 02:29:24;;;;;;;39.13;18.17;;;;;;;;;;5054645;28;20448;-86
2021/10/18 02:31:52;;;;;;;28.60;16.47;;;;;;;;;;5056402;28;20439;-87
2021/10/18 02:34:19;;;;;;;37.83;16.80;;;;;;;;;;5056400;28;20444;-87
2021/10/18 02:39:13;;;;;;;28.30;15.20;;;;;;;;;;5071482;23;20502;-86
2021/10/18 02:41:40;;;;;;;30.43;15.60;;;;;;;;;;5068985;23;20243;-88
2021/10/18 02:44:07;;;;;;;29.00;15.00;;;;;;;;;;5075125;28;20482;-87
2021/10/18 02:46:35;;;;;;;35.77;14.87;;;6.60;99.90;;;;;;5075320;28;20534;-87
2021/10/18 02:49:03;;;;;;;27.30;15.37;;;6.60;99.90;;;;;;5071804;28;20435;-86
2021/10/18 02:51:30;;;;;;;36.03;14.07;;;;;;;;;;5071013;28;20462;-86
2021/10/18 02:53:58;;;;;;;25.77;14.10;;;;;;;;;;5067420;23;20487;-86
2021/10/18 02:56:25;;;;;;;27.97;14.33;;;;;;;;;;5048827;28;20431;-87
2021/10/18 02:58:52;;;;;;;28.73;14.87;;;;;;;;;;5050900;23;20450;31
2021/10/18 03:01:19;;;;;;;26.33;12.80;;;;;;;;;;5027498;28;20475;-87
2021/10/18 03:03:47;;;;;;;27.60;13.30;;;;;;;;;;5029996;28;20491;-87
2021/10/18 03:06:20;;;;;;;24.43;13.93;;;;;;;;;;5041891;23;20604;-87
2021/10/18 03:08:52;;;;;;;24.07;13.50;;;;;;;;;;5058726;23;20495;-86
2021/10/18 03:11:20;;;;;;;24.60;14.13;;;;;;;;;;5060432;23;20474;-86
2021/10/18 03:13:47;;;;;;;30.40;14.73;;;;;;;;;;5070512;28;20442;-86
2021/10/18 03:16:14;;;;;;;32.13;16.30;;;;;;;;;;5089167;23;20448;-86
2021/10/18 03:18:43;;;;;;;25.83;14.03;;;;;;;;;;5062837;23;20502;-87
2021/10/18 03:21:15;;;;;;;28.63;15.00;;;6.60;99.90;;;;;;5064852;23;20435;-86
2021/10/18 03:23:43;;;;;;;27.10;15.57;;;;;;;;;;5067439;23;20490;-86
2021/10/18 03:26:10;;;;;;;31.90;14.97;;;;;;;;;;5069884;28;20446;-86
2021/10/18 03:28:40;;;;;;;23.80;14.30;;;;;;;;;;5068779;23;20487;-86
2021/10/18 03:31:07;;;;;;;28.93;15.13;;;;;;;;;;5063422;23;20478;-87
2021/10/18 03:33:49;;;;;;;26.17;13.53;;;6.70;99.90;;;;;;5072518;23;20506;-86
2021/10/18 03:36:18;;;;;;;30.43;16.53;;;;;;;;;;5068202;23;20899;-86
2021/10/18 03:38:45;;;;;;;30.83;15.47;;;;;;;;;;5071502;28;20457;-86
2021/10/18 03:41:12;;;;;;;30.50;16.30;;;;;;;;;;5069327;28;20797;-86
2021/10/18 03:43:39;;;;;;;26.00;14.80;;;;;;;;;;5072121;28;20451;-86
2021/10/18 03:46:07;;;;;;;29.67;15.47;;;;;;;;;;5067336;28;20451;-86
2021/10/18 03:48:34;;;;;;;24.37;15.27;;;;;;;;;;5071719;28;20442;-86
2021/10/18 03:51:05;;;;;;;29.40;15.40;;;6.60;99.90;;;;;;5064581;23;20479;-87
2021/10/18 03:53:33;;;;;;;28.80;15.20;;;6.70;99.90;;;;;;5058694;23;20486;-86
2021/10/18 03:56:03;;;;;;;29.90;15.70;;;;;;;;;;5091034;23;20538;-87
2021/10/18 03:58:35;;;;;;;30.67;15.83;;;;;;;;;;5068279;23;20474;-86
2021/10/18 04:01:08;;;;;;;28.03;14.93;;;;;;;;;;5057324;23;20491;-87
2021/10/18 04:03:35;;;;;;;33.03;17.33;;;;;;;;;;5056056;23;20494;-86
2021/10/18 04:06:03;;;;;;;28.43;15.50;;;;;;;;;;5044868;28;20494;-87
2021/10/18 04:08:31;;;;;;;32.40;17.40;;;;;;;;;;5070367;23;20494;-86
2021/10/18 04:11:00;;;;;;;29.23;15.27;;;;;;;;;;5066575;23;20490;-87
2021/10/18 04:13:31;;;;;;;27.77;15.07;;;6.70;99.90;;;;;;5080507;23;20489;-86
2021/10/18 04:15:58;;;;;;;33.40;17.33;;;;;;;;;;5085330;23;20830;-86
2021/10/18 04:18:32;;;;;;;36.37;17.07;;;;;;;;;;5065215;23;20475;-86
2021/10/18 04:21:01;;;;;;;29.80;15.03;;;;;;;;;;5071902;23;20486;-86
2021/10/18 04:23:29;;;;;;;28.30;16.30;;;;;;;;;;5021528;28;20443;-86
2021/10/18 04:28:23;;;;;;;34.37;16.60;;;6.90;99.90;;;;;;5079750;23;20555;-86
2021/10/18 04:30:51;;;;;;;36.13;18.10;;;;;;;;;;5080879;23;20239;-86
2021/10/18 04:33:19;;;;;;;34.10;17.60;;;6.90;99.90;;;;;;5102569;23;20496;-86
2021/10/18 04:35:47;;;;;;;30.27;15.87;;;;;;;;;;5087680;23;20494;-86
2021/10/18 04:38:16;;;;;;;32.90;16.70;;;;;;;;;;5080740;23;20482;-87
2021/10/18 04:40:43;;;;;;;32.03;16.50;;;;;;;;;;5081356;23;20489;-87
2021/10/18 04:43:10;;;;;;;44.30;26.70;;;;;;;;;;5075518;28;20418;-86
2021/10/18 04:45:39;;;;;;;35.10;19.87;;;6.90;99.90;;;;;;5075141;28;20481;-86
2021/10/18 04:48:06;;;;;;;33.80;19.97;;;;;;;;;;5074636;28;20446;-87
2021/10/18 04:50:33;;;;;;;33.07;18.70;;;;;;;;;;5080994;23;20486;-86
2021/10/18 04:53:05;;;;;;;28.63;16.30;;;6.90;99.90;;;;;;5087116;23;20492;-86
2021/10/18 04:55:34;;;;;;;32.47;18.27;;;;;;;;;;5168317;22;20483;-86
2021/10/18 04:58:04;;;;;;;29.83;18.80;;;6.80;99.90;;;;;;5075101;28;20458;-87
2021/10/18 05:00:36;;;;;;;27.37;15.90;;;6.80;99.90;;;;;;5074774;28;20450;-86
2021/10/18 05:05:35;;;;;;;30.77;16.73;;;;;;;;;;5080230;23;20490;-86
2021/10/18 05:08:03;;;;;;;37.20;22.27;;;;;;;;;;5079517;23;20232;-86
2021/10/18 05:10:36;;;;;;;36.60;22.30;;;7.00;99.90;;;;;;5079752;23;20496;-86
2021/10/18 05:13:04;;;;;;;28.00;16.27;;;6.90;99.90;;;;;;5077146;23;20478;-87
2021/10/18 05:15:31;;;;;;;34.87;22.67;;;;;;;;;;5074017;28;20445;-86
2021/10/18 05:20:25;;;;;;;22.77;15.50;;;7.00;99.90;;;;;;5083506;23;20533;-86
2021/10/18 05:22:53;;;;;;;28.40;16.70;;;;;;;;;;5080865;23;20232;-86
2021/10/18 05:25:21;;;;;;;29.17;16.13;;;;;;;;;;5083630;23;20505;-86
2021/10/18 05:27:49;;;;;;;27.97;16.53;;;6.90;99.90;;;;;;5079487;23;20490;-86
2021/10/18 05:30:19;;;;;;;30.30;17.97;;;;;;;;;;5070259;28;20461;-86
2021/10/18 05:32:46;;;;;;;25.57;15.10;;;;;;;;;;5082000;23;20474;-86
2021/10/18 05:35:19;;;;;;;30.47;16.20;;;;;;;;;;5097200;23;20493;-86
2021/10/18 05:37:47;;;;;;;25.03;16.20;;;;;;;;;;5074218;28;20434;-87
2021/10/18 05:40:22;;;;;;;26.63;15.43;;;7.10;99.90;;;;;;5076593;23;20486;-86
2021/10/18 05:42:49;;;;;;;26.33;16.67;;;;;;;;;;5068154;28;20506;-86
2021/10/18 05:45:17;;;;;;;34.07;20.50;;;7.10;99.90;;;;;;5078885;23;20498;-87
2021/10/18 05:47:57;;;;;;;26.20;17.20;;;7.10;99.90;;;;;;5076018;23;20493;-86
2021/10/18 05:50:25;;;;;;;24.30;15.23;;;;;;;;;;5079462;23;20925;-87
2021/10/18 05:52:52;;;;;;;23.50;16.30;;;;;;;;;;5074068;28;20431;-86
2021/10/18 05:55:21;;;;;;;26.13;16.30;;;7.10;99.90;;;;;;5074183;28;20427;-86
2021/10/18 05:57:52;;;;;;;25.87;15.07;;;7.10;99.90;;;;;;5080072;23;20478;-86
2021/10/18 06:00:21;;;;;;;31.77;15.93;;;7.10;99.90;;;;;;5080100;23;20427;-86
2021/10/18 06:02:49;;;;;;;26.13;14.87;;;;;;;;;;5087090;23;20479;-87
2021/10/18 06:05:17;;;;;;;26.10;15.90;;;7.10;99.90;;;;;;5094497;23;20473;-87
2021/10/18 06:07:44;;;;;;;36.83;23.17;;;7.20;99.90;;;;;;5086641;23;20513;-86
2021/10/18 06:10:12;;;;;;;31.03;19.80;;;;;;;;;;5082828;23;20454;-86
2021/10/18 06:12:54;;;;;;;23.73;13.50;;;;;;;;;;5086883;23;20482;-87
2021/10/18 06:15:25;;;;;;;27.73;15.77;;;;;;;;;;5081170;23;20427;-87
2021/10/18 06:17:54;;;;;;;30.70;16.40;;;7.20;99.90;;;;;;5166594;22;20524;-86
2021/10/18 06:20:31;;;;;;;28.70;14.90;;;;;;;;;;5162996;22;20450;-86
2021/10/18 06:22:58;;;;;;;27.60;17.60;;;;;;;;;;5067539;23;20486;-87
2021/10/18 06:25:26;;;;;;;28.07;15.40;;;;;;;;;;5076465;23;20477;-86
2021/10/18 06:27:53;;;;;;;24.10;15.57;;;;;;;;;;5078647;23;20482;-86
2021/10/18 06:30:26;;;;;;;27.20;14.87;;;;;;;;;;5100931;23;20497;-87
2021/10/18 06:32:53;;;;;;;23.67;15.00;;;;;;;;;;5075123;28;20435;-86
2021/10/18 06:35:24;;;;;;;22.83;13.93;;;;;;;;;;5075085;28;20457;-86
2021/10/18 06:37:53;;;;;;;26.27;15.60;;;;;;;;;;5080505;23;20573;-86
2021/10/18 06:40:20;;;;;;;25.80;15.57;;;7.30;99.90;;;;;;5088047;23;20501;-86
2021/10/18 06:42:48;;;;;;;23.60;14.70;;;;;;;;;;5087800;23;20488;-86
2021/10/18 06:45:15;;;;;;;25.53;15.10;;;7.40;99.90;;;;;;5081415;23;20484;-86
2021/10/18 06:47:44;;;;;;;23.57;15.23;;;;;;;;;;5085664;23;20480;-86
2021/10/18 06:50:12;;;;;;;23.27;14.43;;;7.40;99.90;;;;;;5075300;23;20489;-85
2021/10/18 06:52:41;;;;;;;19.90;12.57;;;7.30;99.90;;;;;;5069785;23;20478;-86
2021/10/18 06:55:12;;;;;;;25.43;13.70;;;7.30;99.90;;;;;;5081648;23;20437;-85
2021/10/18 06:57:40;;;;;;;20.97;13.53;;;7.20;99.90;;;;;;5046776;28;20455;-86
2021/10/18 07:00:07;;;;;;;21.97;14.43;;;7.20;99.90;;;;;;5054604;28;20412;-86
2021/10/18 07:02:35;;;;;;;24.30;14.17;;;;;;;;;;5051227;28;20782;-86
2021/10/18 07:05:03;;;;;;;25.73;15.00;;;7.40;99.90;;;;;;5050143;28;20483;-86
2021/10/18 07:07:31;;;;;;;23.20;14.50;;;;;;;;;;5063149;23;20475;-87
2021/10/18 07:10:12;;;;;;;21.80;11.60;;;7.60;99.90;;;;;;5073414;23;20490;-86
2021/10/18 07:12:40;;;;;;;28.03;15.70;;;;;;;;;;5061358;23;20476;-86
2021/10/18 07:15:25;;;;;;;22.27;12.93;;;7.60;99.90;;;;;;5073211;23;20491;-86
2021/10/18 07:17:52;;;;;;;24.33;15.97;;;;;;;;;;5052321;23;20471;-86
2021/10/18 07:20:25;;;;;;;25.30;15.03;;;;;;;;;;5155748;23;20509;-86
2021/10/18 07:22:58;;;;;;;26.73;14.20;;;7.50;99.90;;;;;;5065998;23;20903;-87
2021/10/18 07:25:36;;;;;;;23.10;13.13;;;;;;;;;;5044601;23;20488;-85
2021/10/18 07:28:03;;;;;;;19.90;13.67;;;;;;;;;;5034194;28;20444;-86
2021/10/18 07:30:30;;;;;;;26.30;16.20;;;;;;;;;;5041157;23;20484;-85
2021/10/18 07:32:57;;;;;;;21.47;14.87;;;;;;;;;;5050671;23;20507;-85
2021/10/18 07:35:39;;;;;;;26.67;15.90;;;;;;;;;;5070772;23;20494;-86
2021/10/18 07:38:11;;;;;;;28.23;15.77;;;;;;;;;;5059613;23;20479;-86
2021/10/18 07:40:39;;;;;;;24.37;14.63;;;;;;;;;;5051546;28;20458;-87
2021/10/18 07:43:07;;;;;;;23.77;14.80;;;;;;;;;;5070208;23;20497;-86
2021/10/18 07:45:37;;;;;;;27.93;16.00;;;;;;;;;;5083219;23;20482;-86
2021/10/18 07:48:06;;;;;;;23.57;14.30;;;7.80;99.90;;;;;;5082736;23;20487;-87
2021/10/18 07:50:33;;;;;;;25.57;16.60;;;;;;;;;;5074452;23;20480;-87
2021/10/18 07:53:03;;;;;;;26.20;14.77;;;7.80;99.90;;;;;;5079016;23;20464;-85
2021/10/18 07:55:36;;;;;;;27.03;14.30;;;7.80;99.90;;;;;;5058821;23;20451;-87
2021/10/18 07:58:03;;;;;;;18.07;11.87;;;;;;;;;;5084357;23;20490;-89
2021/10/18 08:00:33;;;;;;;24.33;16.23;;;;;;;;;;5081531;23;20486;-86
2021/10/18 08:03:02;;;;;;;22.93;14.20;;;;;;;;;;5067678;23;20487;-86
2021/10/18 08:05:29;;;;;;;22.90;13.77;;;;;;;;;;5057167;28;20477;-86
2021/10/18 08:07:57;;;;;;;28.83;16.27;;;;;;;;;;5073363;23;20510;-89
2021/10/18 08:10:25;;;;;;;31.00;16.73;;;7.80;99.90;;;;;;5071586;23;20491;-87
2021/10/18 08:12:57;;;;;;;26.93;15.57;;;7.90;99.90;;;;;;5086637;23;20515;-86
2021/10/18 08:15:25;;;;;;;21.70;14.87;;;;;;;;;;5127896;23;20544;-86
2021/10/18 08:17:56;;;;;;;26.87;15.87;;;7.90;99.90;;;;;;5084590;23;20486;-86
2021/10/18 08:20:23;;;;;;;22.70;15.13;;;;;;;;;;5160510;23;20494;-89
2021/10/18 08:22:53;;;;;;;24.83;14.73;;;;;;;;;;5074484;23;20466;-85
2021/10/18 08:25:20;;;;;;;29.90;14.20;;;8.10;99.90;;;;;;5068011;23;20510;-85
2021/10/18 08:27:47;;;;;;;21.60;15.00;;;;;;;;;;5058583;28;20442;-86
2021/10/18 08:32:42;;;;;;;25.80;15.03;;;;;;;;;;5078436;23;20566;-87
2021/10/18 08:35:15;;;;;;;24.90;15.90;;;;;;;;;;5079694;23;20232;-86
2021/10/18 08:40:30;;;;;;;23.97;14.50;;;8.20;99.90;;;;;;5065504;23;20406;-86
2021/10/18 08:43:05;;;;;;;23.70;15.40;;;8.30;99.90;;;;;;5064388;23;20502;-86
2021/10/18 08:45:32;;;;;;;26.73;13.93;;;;;;;;;;5074360;23;20538;-86
2021/10/18 08:48:00;;;;;;;21.40;15.10;;;8.40;99.90;;;;;;5078677;28;20450;-85
2021/10/18 08:50:28;;;;;;;26.00;15.70;;;;;;;;;;5082312;23;20437;-86
2021/10/18 08:52:56;;;;;;;17.20;11.40;;;8.30;99.90;;;;;;5068050;23;20481;-86
2021/10/18 08:55:26;;;;;;;24.57;15.00;;;;;;;;;;5074509;23;20501;-86
2021/10/18 08:57:54;;;;;;;19.97;14.37;;;;;;;;;;5064200;23;20483;-87
2021/10/18 09:00:37;;;;;;;21.73;13.20;;;;;;;;;;5079231;23;20495;-86
2021/10/18 09:03:28;;;;;;;20.63;13.60;;;8.30;99.90;;;;;;5152147;23;20512;-86
2021/10/18 09:06:10;;;;;;;18.40;12.27;;;8.40;99.90;;;;;;5077346;28;20470;-86
2021/10/18 09:08:39;;;;;;;20.90;12.13;;;8.30;99.90;;;;;;5074036;23;20510;-87
2021/10/18 09:11:12;;;;;;;24.10;13.90;;;8.20;99.90;;;;;;5078868;23;20486;-86
2021/10/18 09:13:44;;;;;;;20.63;10.70;;;8.10;99.90;;;;;;5061543;23;20552;-87
2021/10/18 09:16:12;;;;;;;22.87;12.90;;;;;;;;;;5065800;23;20487;-87
2021/10/18 09:18:43;;;;;;;19.07;11.60;;;8.10;99.90;;;;;;5065895;23;20420;-86
2021/10/18 09:21:10;;;;;;;21.27;13.50;;;;;;;;;;5072162;23;20464;-86
2021/10/18 09:23:40;;;;;;;25.20;15.70;;;8.20;99.90;;;;;;5037619;28;20436;-87
2021/10/18 09:26:13;;;;;;;19.73;12.90;;;;;;;;;;5050828;23;20475;-87
2021/10/18 09:28:40;;;;;;;19.23;12.20;;;;;;;;;;5049014;28;20448;-87
2021/10/18 09:31:16;;;;;;;18.40;12.00;;;8.30;99.90;;;;;;5057879;28;20436;-87
2021/10/18 09:34:05;;;;;;;23.10;14.57;;;8.40;99.90;;;;;;5060766;23;20886;-87
2021/10/18 09:36:33;;;;;;;23.50;15.83;;;;;;;;;;5078930;23;20470;-86
2021/10/18 09:39:16;;;;;;;23.40;14.53;;;8.80;99.90;;;;;;5084252;23;20493;-86
2021/10/18 09:41:45;;;;;;;18.40;10.97;;;8.80;99.90;;;;;;5077504;28;20453;-87
2021/10/18 09:44:24;;;;;;;20.57;12.40;;;;;;;;;;5082026;23;20476;-86
2021/10/18 09:47:04;;;;;;;21.70;13.83;;;;;;;;;;5080276;23;20589;-86
2021/10/18 10:51:52;;;;;;;20.00;12.10;;;12.20;99.90;;;;;;5082573;23;20517;-91
2021/10/18 10:54:39;;;;;;;16.77;12.07;;;11.30;99.90;;;;;;5080380;23;20554;-87
2021/10/18 10:57:12;;;;;;;15.77;11.27;;;;;;;;;;5105043;23;20500;-86
2021/10/18 10:59:51;;;;;;;20.83;12.70;;;12.00;99.90;;;;;;5083592;23;20490;-86
2021/10/18 11:02:27;;;;;;;15.70;11.87;;;;;;;;;;5053600;28;20445;-86
2021/10/18 11:04:54;;;;;;;21.63;13.60;;;;;;;;;;5067303;23;20468;-87
2021/10/18 11:09:49;;;;;;;17.80;11.83;;;13.30;99.90;;;;;;5083422;23;20553;-87
2021/10/18 11:12:26;;;;;;;16.40;11.60;;;13.60;99.90;;;;;;5071064;23;20232;-86
2021/10/18 11:15:10;;;;;;;15.10;11.93;;;14.00;99.90;;;;;;4910448;23;4949551;-87
2021/10/18 11:17:38;;;;;;;16.03;12.23;;;14.50;99.90;;;;;;5072728;28;20176;-87
2021/10/18 11:20:13;;;;;;;15.60;11.57;;;14.90;99.90;;;;;;5080473;23;20482;-87
2021/10/18 11:22:41;;;;;;;14.40;12.90;;;;;;;;;;5166333;22;20503;-85
2021/10/18 11:25:11;;;;;;;16.00;11.17;;;15.10;99.90;;;;;;5081282;23;20498;-87
2021/10/18 11:27:39;;;;;;;18.53;11.67;;;15.30;99.90;;;;;;5088709;23;20492;-87
2021/10/18 11:30:15;;;;;;;15.80;11.47;;;15.90;99.90;;;;;;5083624;23;20587;-87
2021/10/18 11:32:55;;;;;;;17.13;12.13;;;15.40;99.90;;;;;;5213185;22;20430;-86
2021/10/18 11:35:22;;;;;;;16.70;10.70;;;;;;;;;;5054919;28;20443;-88
2021/10/18 11:38:07;;;;;;;19.53;11.90;;;;;;;;;;5065739;23;20466;-87
2021/10/18 11:40:36;;;;;;;14.87;11.37;;;15.60;99.90;;;;;;5045057;28;20525;-87
2021/10/18 11:43:06;;;;;;;14.60;10.33;;;16.00;99.90;;;;;;5075852;28;20426;-87
2021/10/18 11:45:44;;;;;;;14.97;11.50;;;15.60;99.90;;;;;;5084126;23;20410;-87
2021/10/18 11:48:17;;;;;;;12.77;10.50;;;;;;;;;;5064010;23;20474;-87
2021/10/18 11:50:45;;;;;;;15.67;11.67;;;16.50;99.90;;;;;;5089998;23;20470;-87
2021/10/18 11:53:17;;;;;;;13.20;9.80;;;;;;;;;;5102247;23;20550;-90
2021/10/18 11:55:48;;;;;;;14.07;10.03;;;15.30;99.90;;;;;;5076382;28;20431;-86
2021/10/18 11:58:23;;;;;;;12.13;10.20;;;15.90;99.90;;;;;;5085756;23;20481;-87
2021/10/18 12:01:01;;;;;;;27.17;13.30;;;15.20;99.90;;;;;;5100672;23;20462;-90
2021/10/18 12:05:59;;;;;;;14.20;9.47;;;16.30;99.90;;;;;;5087726;23;20508;-88
2021/10/18 12:08:29;;;;;;;12.00;9.53;;;16.40;99.90;;;;;;5076775;28;20458;-89
2021/10/18 12:10:56;;;;;;;12.40;9.63;;;;;;;;;;5076588;28;20435;-90
2021/10/18 12:13:36;;;;;;;14.40;9.57;;;16.70;99.90;;;;;;5072436;28;20462;-90
2021/10/18 12:16:14;;;;;;;16.80;10.33;;;16.40;99.90;;;;;;5072683;28;20446;-88
2021/10/18 12:18:47;;;;;;;15.40;10.17;;;15.50;99.90;;;;;;5076789;28;20449;-88
2021/10/18 12:21:19;;;;;;;12.83;10.00;;;15.60;99.90;;;;;;5076359;28;20446;-91
2021/10/18 12:23:52;;;;;;;11.30;9.53;;;16.40;99.90;;;;;;5083148;23;20496;-90
2021/10/18 12:26:20;;;;;;;13.20;9.07;;;16.90;99.90;;;;;;5073926;28;20479;-93
2021/10/18 12:28:49;;;;;;;10.20;8.60;;;17.40;99.90;;;;;;5079986;28;20430;-91
2021/10/18 12:31:35;;;;;;;11.30;8.60;;;17.50;99.90;;;;;;5079279;28;20423;-86
2021/10/18 12:34:25;;;;;;;12.80;10.57;;;17.50;99.90;;;;;;5094139;23;20469;-88
2021/10/18 12:37:04;;;;;;;16.80;9.03;;;17.10;99.90;;;;;;5080946;28;20457;-86
2021/10/18 12:41:57;;;;;;;16.47;9.97;;;;;;;;;;5080489;23;20581;-91
2021/10/18 12:44:36;;;;;;;13.97;11.07;;;17.90;99.90;;;;;;5086628;23;20227;-88
2021/10/18 12:47:11;;;;;;;12.73;9.40;;;18.00;99.90;;;;;;5079683;28;20485;-91
2021/10/18 12:49:38;;;;;;;14.40;9.67;;;;;;;;;;5098366;23;20520;-86
2021/10/18 12:52:06;;;;;;;12.67;8.83;;;;;;;;;;5085684;23;20473;-91
2021/10/18 12:57:03;;;;;;;12.87;10.20;;;18.10;99.90;;;;;;5102721;23;20486;-95
2021/10/18 13:02:19;;;;;;;12.77;9.30;;;17.20;99.90;;;;;;5092414;23;20497;-88
2021/10/18 13:05:17;;;;;;;11.47;9.57;;;17.30;99.90;;;;;;5090684;23;20243;-90
2021/10/18 13:07:51;;;;;;;11.63;9.87;;;;;;;;;;5084287;23;20497;-88
2021/10/18 13:10:18;;;;;;;9.67;8.67;;;;;;;;;;5016341;28;20457;-90
2021/10/18 13:12:49;;;;;;;13.50;9.57;;;16.90;99.90;;;;;;5093024;23;20490;-87
2021/10/18 13:15:16;;;;;;;11.60;8.70;;;;;;;;;;5070590;23;20875;-87
2021/10/18 13:17:46;;;;;;;12.77;9.33;;;16.60;99.90;;;;;;5074948;23;20517;-87
2021/10/18 13:20:15;;;;;;;10.10;8.83;;;17.20;99.90;;;;;;5064259;23;20499;-89
2021/10/18 13:22:44;;;;;;;13.00;8.87;;;17.20;99.90;;;;;;5076622;23;20517;-87
2021/10/18 13:25:12;;;;;;;10.23;8.50;;;17.00;99.90;;;;;;5072460;28;20503;-88
2021/10/18 13:27:42;;;;;;;12.93;8.63;;;;;;;;;;5072345;23;20483;-91
2021/10/18 13:30:13;;;;;;;13.73;10.30;;;;;;;;;;5075236;23;20471;-89
2021/10/18 13:32:41;;;;;;;11.77;8.93;;;16.80;99.90;;;;;;5078626;23;20573;-88
2021/10/18 13:35:11;;;;;;;10.73;8.23;;;16.50;99.90;;;;;;5074989;28;20447;-87
2021/10/18 13:37:43;;;;;;;18.03;9.80;;;;;;;;;;5072280;23;20493;-90
2021/10/18 13:40:18;;;;;;;12.87;9.43;;;;;;;;;;5075237;23;20562;-88
2021/10/18 13:42:49;;;;;;;11.53;8.70;;;16.30;99.90;;;;;;5075592;23;20494;-89
2021/10/18 13:45:18;;;;;;;10.07;9.07;;;16.70;99.90;;;;;;5050501;28;20460;-91
2021/10/18 13:47:45;;;;;;;14.13;10.60;;;;;;;;;;5054465;28;20487;-87
2021/10/18 13:50:14;;;;;;;15.20;10.10;;;16.30;99.90;;;;;;5050395;28;20428;-88
2021/10/18 13:52:41;;;;;;;11.90;10.20;;;;;;;;;;5053614;28;20435;-86
2021/10/18 13:55:11;;;;;;;14.30;10.17;;;16.10;99.90;;;;;;5071809;23;20496;-90
2021/10/18 13:57:39;;;;;;;13.10;9.20;;;;;;;;;;5053400;28;20471;-88
2021/10/18 14:00:12;;;;;;;17.03;11.00;;;;;;;;;;5060307;23;20491;-88
2021/10/18 14:02:40;;;;;;;14.27;9.23;;;17.70;99.90;;;;;;5080712;23;20487;-87
2021/10/18 14:05:08;;;;;;;12.60;9.80;;;17.40;99.90;;;;;;5056304;28;20439;-91
2021/10/18 14:07:36;;;;;;;13.07;9.80;;;17.50;99.90;;;;;;5050252;28;20491;-94
2021/10/18 14:10:04;;;;;;;11.70;9.70;;;;;;;;;;5052731;28;20443;-90
2021/10/18 14:12:32;;;;;;;10.23;9.00;;;18.50;99.90;;;;;;5066732;23;20490;-88
2021/10/18 14:14:59;;;;;;;12.60;9.67;;;;;;;;;;5073937;28;20438;-87
2021/10/18 14:17:26;;;;;;;13.90;10.00;;;;;;;;;;5073028;28;20465;-90
2021/10/18 14:19:53;;;;;;;10.93;9.80;;;;;;;;;;5073572;28;20756;-91
2021/10/18 14:22:21;;;;;;;10.83;9.50;;;;;;;;;;5073818;28;20455;-89
2021/10/18 14:24:49;;;;;;;14.40;11.03;;;18.00;99.90;;;;;;5069892;28;20450;-90
2021/10/18 14:27:16;;;;;;;13.10;10.83;;;;;;;;;;5022290;28;20495;-91
2021/10/18 14:29:43;;;;;;;15.30;10.93;;;;;;;;;;5074028;28;20457;-88
2021/10/18 14:32:11;;;;;;;17.03;12.00;;;;;;;;;;5139895;23;20479;-87
2021/10/18 14:34:41;;;;;;;13.10;10.90;;;;;;;;;;5062191;23;20487;-88
2021/10/18 14:37:08;;;;;;;12.90;10.87;;;;;;;;;;5064486;23;20494;-92
2021/10/18 14:39:36;;;;;;;13.40;11.50;;;;;;;;;;5073327;28;20764;-89
2021/10/18 14:42:07;;;;;;;13.37;10.53;;;;;;;;;;5063157;23;20498;-89
2021/10/18 14:44:34;;;;;;;12.80;10.10;;;;;;;;;;5053519;28;20440;-88
2021/10/18 14:47:02;;;;;;;15.73;11.73;;;;;;;;;;5070603;23;20490;-88
2021/10/18 14:49:29;;;;;;;15.00;10.93;;;;;;;;;;5072581;28;20450;-88
2021/10/18 14:51:57;;;;;;;14.73;11.40;;;16.40;99.90;;;;;;5070583;23;20497;-89
2021/10/18 14:54:24;;;;;;;14.73;11.03;;;;;;;;;;5062193;23;20589;-89
2021/10/18 14:56:52;;;;;;;15.70;11.40;;;;;;;;;;5074044;28;20438;-91
2021/10/18 14:59:20;;;;;;;17.00;11.70;;;;;;;;;;5072287;23;20491;-90
2021/10/18 15:01:47;;;;;;;15.90;12.00;;;;;;;;;;5069005;23;20479;-90
2021/10/18 15:04:14;;;;;;;15.47;12.27;;;;;;;;;;5074237;28;20532;-87
2021/10/18 15:06:45;;;;;;;14.23;12.67;;;;;;;;;;5071334;23;20489;-92
2021/10/18 15:09:12;;;;;;;20.80;11.20;;;;;;;;;;5050927;28;20448;-88
2021/10/18 15:14:05;;;;;;;13.33;11.93;;;;;;;;;;5077379;23;20479;-90
2021/10/18 15:16:34;;;;;;;16.97;11.90;;;;;;;;;;5053963;28;20195;-89
2021/10/18 15:19:02;;;;;;;17.90;11.63;;;;;;;;;;5053660;28;20443;-93
2021/10/18 15:21:32;;;;;;;17.30;12.50;;;;;;;;;;5074476;23;20490;-90
2021/10/18 15:24:05;;;;;;;15.20;11.80;;;15.40;99.90;;;;;;5069011;23;20476;-89